Time;durP1;ratioP1;P1;durP2;ratioP2;P2;SDS_P1;SDS_P2;PMS_P1;PMS_P2;Temp;Humidity;BMP_temperature;BMP_pressure;BME280_temperature;BME280_humidity;BME280_pressure;Samples;Min_cycle;Max_cycle;Signal;HPM_P1;HPM_P2
2021/12/12 00:00:02;;;;;;;38.38;17.17;;;4.20;99.90;;;;;;5048759;28;20041;-82
2021/12/12 00:03:21;;;;;;;35.47;16.98;;;4.20;99.90;;;;;;5064381;28;20086;-81
2021/12/12 00:05:21;;;;;;;35.90;16.42;;;4.30;99.90;;;;;;5065774;28;20056;-82
2021/12/12 00:07:47;;;;;;;35.67;17.02;;;4.20;99.90;;;;;;5064715;28;20049;-82
2021/12/12 00:10:24;;;;;;;39.03;16.25;;;4.30;99.90;;;;;;5066631;28;20049;-82
2021/12/12 00:12:55;;;;;;;29.83;17.70;;;4.30;99.90;;;;;;5065072;28;20044;-82
2021/12/12 00:15:22;;;;;;;32.63;18.02;;;6.20;99.90;;;;;;5065400;28;20043;-82
2021/12/12 00:17:48;;;;;;;39.60;18.10;;;4.30;99.90;;;;;;5065000;28;20173;-82
2021/12/12 00:20:18;;;;;;;39.63;16.83;;;4.30;99.90;;;;;;5064575;28;20492;-82
2021/12/12 00:22:44;;;;;;;37.30;16.65;;;4.30;99.90;;;;;;5066042;28;20090;-82
2021/12/12 00:25:12;;;;;;;37.08;17.00;;;4.90;99.90;;;;;;5064986;28;20044;-80
2021/12/12 00:27:38;;;;;;;35.90;16.77;;;5.70;99.90;;;;;;5065704;28;20045;-80
2021/12/12 00:30:11;;;;;;;39.65;17.15;;;6.30;99.90;;;;;;5066153;28;20133;-82
2021/12/12 00:32:39;;;;;;;36.13;17.20;;;4.40;99.90;;;;;;5065521;28;20052;-80
2021/12/12 00:35:09;;;;;;;37.75;16.63;;;4.40;99.90;;;;;;5048352;28;20052;-80
2021/12/12 00:37:35;;;;;;;32.90;16.23;;;4.40;99.90;;;;;;5066213;28;20043;-80
2021/12/12 00:40:28;;;;;;;32.28;16.83;;;4.40;99.90;;;;;;5064305;28;20044;-80
2021/12/12 00:42:58;;;;;;;25.67;16.85;;;4.40;99.90;;;;;;5063542;28;20052;-80
2021/12/12 00:45:25;;;;;;;34.63;16.73;;;4.40;99.90;;;;;;5063101;28;20131;-80
2021/12/12 00:47:51;;;;;;;30.55;16.85;;;4.80;99.90;;;;;;5066105;28;20381;-80
2021/12/12 00:50:27;;;;;;;40.88;17.02;;;4.80;99.90;;;;;;5065356;28;20032;-81
2021/12/12 00:52:53;;;;;;;35.50;16.58;;;4.40;99.90;;;;;;5065501;28;20044;-80
2021/12/12 00:55:19;;;;;;;28.23;16.40;;;4.80;99.90;;;;;;5066217;28;20048;-81
2021/12/12 00:57:50;;;;;;;32.97;16.83;;;4.40;99.90;;;;;;5064871;28;20076;-81
2021/12/12 01:00:21;;;;;;;36.97;17.38;;;4.40;99.90;;;;;;5048421;28;20128;-81
2021/12/12 01:02:46;;;;;;;37.97;18.42;;;5.90;99.90;;;;;;5065188;28;20492;-81
2021/12/12 01:05:13;;;;;;;35.58;16.88;;;4.40;99.90;;;;;;5065876;28;20127;-81
2021/12/12 01:07:42;;;;;;;35.05;16.42;;;4.40;99.90;;;;;;5063940;28;20408;-81
2021/12/12 01:10:22;;;;;;;34.85;17.73;;;4.40;99.90;;;;;;5065118;28;20033;-80
2021/12/12 01:12:50;;;;;;;31.65;16.73;;;4.40;99.90;;;;;;5065602;28;20090;-80
2021/12/12 01:15:47;;;;;;;37.15;17.73;;;4.40;99.90;;;;;;5064422;28;20115;-81
2021/12/12 01:18:24;;;;;;;34.92;18.83;;;4.40;99.90;;;;;;5063929;28;20057;-80
2021/12/12 01:20:59;;;;;;;32.10;17.73;;;4.40;99.90;;;;;;5048004;28;20457;-80
2021/12/12 01:23:36;;;;;;;35.90;17.73;;;4.40;99.90;;;;;;5064585;28;20045;-81
2021/12/12 01:26:03;;;;;;;35.03;17.58;;;6.40;99.90;;;;;;5065175;28;20489;-80
2021/12/12 01:28:36;;;;;;;36.42;17.23;;;4.40;99.90;;;;;;5064287;28;20053;-81
2021/12/12 01:31:07;;;;;;;46.80;18.92;;;5.30;99.90;;;;;;5063830;28;20048;-81
2021/12/12 01:33:35;;;;;;;39.88;19.52;;;4.40;99.90;;;;;;5064197;28;20120;-80
2021/12/12 01:36:23;;;;;;;36.28;17.63;;;4.50;99.90;;;;;;5046824;28;20044;-81
2021/12/12 01:38:53;;;;;;;29.98;16.58;;;4.50;99.90;;;;;;5063620;28;20049;-81
2021/12/12 01:41:26;;;;;;;38.33;18.40;;;4.50;99.90;;;;;;5063467;28;20049;-81
2021/12/12 01:43:59;;;;;;;36.92;18.13;;;4.50;99.90;;;;;;5047017;28;20056;-81
2021/12/12 01:46:28;;;;;;;35.17;17.67;;;4.50;99.90;;;;;;5047164;28;20381;-80
2021/12/12 01:49:14;;;;;;;38.35;18.38;;;4.50;99.90;;;;;;5064459;28;20041;-81
2021/12/12 01:51:43;;;;;;;40.05;17.90;;;4.50;99.90;;;;;;5065276;28;20059;-81
2021/12/12 01:54:10;;;;;;;35.90;17.73;;;5.80;99.90;;;;;;5063202;28;20049;-81
2021/12/12 01:56:42;;;;;;;35.05;17.50;;;6.70;99.90;;;;;;5034907;28;20056;-81
2021/12/12 01:59:11;;;;;;;37.75;18.00;;;4.50;99.90;;;;;;5067358;28;20040;-81
2021/12/12 02:01:42;;;;;;;33.03;17.80;;;4.50;99.90;;;;;;5067282;28;20056;-81
2021/12/12 02:04:31;;;;;;;36.45;18.13;;;5.90;99.90;;;;;;5069068;28;20511;-81
2021/12/12 02:06:57;;;;;;;34.78;17.38;;;4.50;99.90;;;;;;5050440;28;20763;-81
2021/12/12 02:09:25;;;;;;;39.78;17.67;;;4.50;99.90;;;;;;5069200;28;20447;-80
2021/12/12 02:11:58;;;;;;;36.72;18.00;;;4.50;99.90;;;;;;5068782;28;20044;-80
2021/12/12 02:14:26;;;;;;;37.58;18.58;;;5.60;99.90;;;;;;5068524;28;20044;-80
2021/12/12 02:16:58;;;;;;;33.47;18.75;;;4.50;99.90;;;;;;5068900;28;20626;-81
2021/12/12 02:19:35;;;;;;;36.10;18.17;;;4.50;99.90;;;;;;5068150;28;20045;-80
2021/12/12 02:22:30;;;;;;;44.70;17.67;;;5.10;99.90;;;;;;5068856;28;20041;-80
2021/12/12 02:36:24;;;;;;;29.15;16.15;;;4.60;99.90;;;;;;5065177;28;20048;-80
2021/12/12 02:38:53;;;;;;;41.25;16.00;;;4.70;99.90;;;;;;5068458;28;20048;-80
2021/12/12 02:41:23;;;;;;;35.35;15.75;;;4.60;99.90;;;;;;5067733;28;20044;-80
2021/12/12 02:43:54;;;;;;;35.00;14.95;;;4.70;99.90;;;;;;5068445;28;20041;-81
2021/12/12 02:46:26;;;;;;;28.63;16.27;;;4.70;99.90;;;;;;5068399;28;20079;-81
2021/12/12 02:48:53;;;;;;;28.20;16.15;;;4.60;99.90;;;;;;5066365;28;20127;-81
2021/12/12 02:51:19;;;;;;;32.10;15.48;;;5.10;99.90;;;;;;5067905;28;20492;-81
2021/12/12 02:53:55;;;;;;;39.10;16.63;;;4.70;99.90;;;;;;5067616;28;20034;-80
2021/12/12 02:56:33;;;;;;;30.25;15.00;;;4.70;99.90;;;;;;5068808;28;20060;-81
2021/12/12 02:59:01;;;;;;;39.72;16.88;;;4.70;99.90;;;;;;5066824;28;20481;-81
2021/12/12 03:01:34;;;;;;;35.67;15.43;;;5.30;99.90;;;;;;5067493;28;20051;-81
2021/12/12 03:04:00;;;;;;;30.05;15.73;;;4.70;99.90;;;;;;5050754;28;20046;-81
2021/12/12 03:06:29;;;;;;;39.78;15.70;;;4.70;99.90;;;;;;5066152;28;20059;-80
2021/12/12 03:09:08;;;;;;;27.10;14.15;;;4.70;99.90;;;;;;5066928;28;20127;-81
2021/12/12 03:11:34;;;;;;;33.50;15.68;;;4.70;99.90;;;;;;5066222;28;20459;-81
2021/12/12 03:14:00;;;;;;;25.00;13.93;;;4.20;99.90;;;;;;5049862;28;20072;-81
2021/12/12 03:16:27;;;;;;;42.53;14.73;;;4.80;99.90;;;;;;5067003;28;20384;-81
2021/12/12 03:18:55;;;;;;;27.55;13.57;;;4.80;99.90;;;;;;5065316;28;20586;-81
2021/12/12 03:21:32;;;;;;;29.02;16.02;;;4.90;99.90;;;;;;5049527;28;20123;-81
2021/12/12 03:24:10;;;;;;;33.47;12.57;;;4.80;99.90;;;;;;5065327;28;20060;-80
2021/12/12 03:26:37;;;;;;;25.85;13.00;;;4.80;99.90;;;;;;5067765;28;20431;-81
2021/12/12 03:29:04;;;;;;;33.30;13.60;;;4.80;99.90;;;;;;5067274;28;20052;-81
2021/12/12 03:31:38;;;;;;;26.50;13.15;;;4.90;99.90;;;;;;5066899;28;20040;-80
2021/12/12 03:34:09;;;;;;;28.33;13.88;;;5.70;99.90;;;;;;5067795;28;20053;-80
2021/12/12 03:36:35;;;;;;;30.50;11.52;;;4.90;99.90;;;;;;5065066;28;20123;-80
2021/12/12 03:39:07;;;;;;;30.92;13.23;;;4.90;99.90;;;;;;5067718;28;20039;-80
2021/12/12 03:41:35;;;;;;;27.73;13.43;;;4.90;99.90;;;;;;5066940;28;20047;-80
2021/12/12 03:44:05;;;;;;;26.10;11.95;;;5.00;99.90;;;;;;5066585;28;20047;-80
2021/12/12 03:46:31;;;;;;;18.50;11.50;;;5.00;99.90;;;;;;5067070;28;20036;-80
2021/12/12 03:48:57;;;;;;;22.20;10.45;;;5.00;99.90;;;;;;5065857;28;20446;-80
2021/12/12 03:51:27;;;;;;;20.95;10.93;;;5.00;99.90;;;;;;5065566;28;20056;-81
2021/12/12 03:53:53;;;;;;;19.63;10.32;;;5.10;99.90;;;;;;5066169;28;20493;-80
2021/12/12 03:56:19;;;;;;;21.00;10.45;;;5.10;99.90;;;;;;5065434;28;20044;-81
2021/12/12 03:58:46;;;;;;;20.60;10.45;;;5.10;99.90;;;;;;5066660;28;20039;-80
2021/12/12 04:01:18;;;;;;;21.58;10.60;;;5.10;99.90;;;;;;5066197;28;20128;-80
2021/12/12 04:03:45;;;;;;;20.38;10.75;;;5.20;99.90;;;;;;5067064;28;20148;-80
2021/12/12 04:06:14;;;;;;;20.55;9.52;;;7.30;99.90;;;;;;5047940;28;20057;-80
2021/12/12 04:08:43;;;;;;;20.85;10.20;;;5.20;99.90;;;;;;5065367;28;20048;-80
2021/12/12 04:11:20;;;;;;;20.45;9.32;;;5.20;99.90;;;;;;5047654;28;20041;-80
2021/12/12 04:13:48;;;;;;;14.95;8.38;;;5.20;99.90;;;;;;5066542;28;20044;-80
2021/12/12 04:16:15;;;;;;;15.55;8.25;;;5.20;99.90;;;;;;5066524;28;20620;-80
2021/12/12 04:18:41;;;;;;;17.23;8.15;;;5.30;99.90;;;;;;5065636;28;20045;-80
2021/12/12 04:21:07;;;;;;;19.40;8.52;;;5.30;99.90;;;;;;5066792;28;20047;-80
2021/12/12 04:23:33;;;;;;;14.77;8.13;;;6.00;99.90;;;;;;5065519;28;20041;-80
2021/12/12 04:26:20;;;;;;;16.48;9.13;;;5.30;99.90;;;;;;5066552;28;20055;-80
2021/12/12 04:28:57;;;;;;;18.60;8.73;;;5.30;99.90;;;;;;5066030;28;20063;-80
2021/12/12 04:31:24;;;;;;;17.90;8.10;;;5.30;99.90;;;;;;5065620;28;20049;-80
2021/12/12 04:33:52;;;;;;;12.45;7.68;;;5.30;99.90;;;;;;5065092;28;20075;-80
2021/12/12 04:36:17;;;;;;;13.55;8.55;;;5.30;99.90;;;;;;5065334;28;20415;-80
2021/12/12 04:38:43;;;;;;;13.77;7.72;;;5.80;99.90;;;;;;5066510;28;20098;-80
2021/12/12 04:41:09;;;;;;;13.05;8.13;;;5.30;99.90;;;;;;5030598;28;20480;-80
2021/12/12 04:43:35;;;;;;;16.52;7.28;;;5.30;99.90;;;;;;5066099;28;20053;-80
2021/12/12 04:46:10;;;;;;;16.08;7.25;;;5.30;99.90;;;;;;5065642;28;20040;-80
2021/12/12 04:51:56;;;;;;;12.30;6.63;;;5.30;99.90;;;;;;5066201;28;20126;-81
2021/12/12 04:54:42;;;;;;;12.07;7.10;;;5.20;99.90;;;;;;5065863;28;20400;-81
2021/12/12 04:57:08;;;;;;;9.30;6.75;;;5.20;99.90;;;;;;5063585;28;20139;-81
2021/12/12 05:00:09;;;;;;;13.48;7.38;;;5.20;99.90;;;;;;5066193;28;20037;-80
2021/12/12 05:03:05;;;;;;;15.75;6.88;;;7.20;99.90;;;;;;5043403;28;20088;-80
2021/12/12 05:05:42;;;;;;;12.75;7.30;;;3.20;99.90;;;;;;5065133;28;20105;-81
2021/12/12 05:09:01;;;;;;;9.98;6.88;;;5.20;99.90;;;;;;5065806;28;20087;-80
2021/12/12 05:11:54;;;;;;;12.50;6.35;;;5.20;99.90;;;;;;5062723;28;20045;-80
2021/12/12 05:14:23;;;;;;;11.63;6.15;;;5.20;99.90;;;;;;5062926;28;20071;-80
2021/12/12 05:17:17;;;;;;;9.52;6.90;;;5.20;99.90;;;;;;5047950;28;20076;-81
2021/12/12 05:19:49;;;;;;;11.95;6.63;;;5.20;99.90;;;;;;5063279;28;20059;-80
2021/12/12 05:22:20;;;;;;;11.40;6.20;;;5.30;99.90;;;;;;5063973;28;20507;-80
2021/12/12 05:24:50;;;;;;;10.50;6.20;;;5.20;99.90;;;;;;5065451;28;20127;-80
2021/12/12 05:27:22;;;;;;;8.90;5.95;;;7.40;99.90;;;;;;5064560;28;20052;-80
2021/12/12 05:29:54;;;;;;;7.25;5.45;;;5.30;99.90;;;;;;5064537;28;20064;-80
2021/12/12 05:32:21;;;;;;;11.50;6.45;;;5.30;99.90;;;;;;5064690;28;20048;-80
2021/12/12 05:34:49;;;;;;;12.18;5.88;;;7.40;99.90;;;;;;5065551;28;20036;-80
2021/12/12 05:37:17;;;;;;;8.73;5.60;;;5.30;99.90;;;;;;5064846;28;20051;-80
2021/12/12 05:39:43;;;;;;;8.02;5.65;;;5.30;99.90;;;;;;5063634;28;20120;-81
2021/12/12 05:42:10;;;;;;;9.85;6.15;;;5.30;99.90;;;;;;5063789;28;20097;-80
2021/12/12 05:44:36;;;;;;;12.63;5.25;;;5.40;99.90;;;;;;5064738;28;20396;-81
2021/12/12 05:47:05;;;;;;;6.95;5.45;;;5.40;99.90;;;;;;5065452;28;20048;-80
2021/12/12 05:49:32;;;;;;;10.60;5.75;;;6.00;99.90;;;;;;5063182;28;20053;-81
2021/12/12 05:51:59;;;;;;;8.57;4.97;;;5.40;99.90;;;;;;5047495;28;20404;-80
2021/12/12 05:54:26;;;;;;;7.10;5.50;;;5.40;99.90;;;;;;5063353;28;20044;-80
2021/12/12 05:56:53;;;;;;;9.82;5.50;;;5.40;99.90;;;;;;5062969;28;20043;-81
2021/12/12 05:59:20;;;;;;;8.85;6.63;;;5.50;99.90;;;;;;5063745;28;20048;-81
2021/12/12 06:01:47;;;;;;;7.18;5.47;;;5.50;99.90;;;;;;5062746;28;20130;-80
2021/12/12 06:04:13;;;;;;;8.73;5.70;;;5.50;99.90;;;;;;5065409;28;20415;-81
2021/12/12 06:06:42;;;;;;;8.07;5.45;;;5.50;99.90;;;;;;5062650;28;20053;-81
2021/12/12 06:09:10;;;;;;;9.88;5.50;;;6.00;99.90;;;;;;5046856;28;20044;-81
2021/12/12 06:11:38;;;;;;;6.63;5.60;;;5.60;99.90;;;;;;5063334;28;20044;-80
2021/12/12 06:14:07;;;;;;;12.02;6.75;;;5.70;99.90;;;;;;5062773;28;20037;-81
2021/12/12 06:16:34;;;;;;;9.82;4.93;;;5.70;99.90;;;;;;5065208;28;20088;-81
2021/12/12 06:19:08;;;;;;;9.27;5.38;;;5.70;99.90;;;;;;5062445;28;20051;-81
2021/12/12 06:21:34;;;;;;;9.77;6.35;;;5.70;99.90;;;;;;5046905;28;20041;-82
2021/12/12 06:24:01;;;;;;;11.85;6.25;;;5.70;99.90;;;;;;5064407;28;20373;-81
2021/12/12 06:26:27;;;;;;;7.93;5.43;;;7.00;99.90;;;;;;5063518;28;20518;-82
2021/12/12 06:28:53;;;;;;;8.00;5.65;;;6.30;99.90;;;;;;5063221;28;20143;-81
2021/12/12 06:31:20;;;;;;;8.23;5.50;;;5.70;99.90;;;;;;5063954;28;20127;-82
2021/12/12 06:33:47;;;;;;;9.07;5.63;;;5.80;99.90;;;;;;5065131;28;20395;-82
2021/12/12 06:36:14;;;;;;;6.63;4.72;;;5.80;99.90;;;;;;5063941;28;20040;-81
2021/12/12 06:38:45;;;;;;;8.05;5.15;;;5.80;99.90;;;;;;5063180;28;20048;-81
2021/12/12 06:41:11;;;;;;;7.72;5.15;;;5.80;99.90;;;;;;5065399;28;20123;-81
2021/12/12 06:43:38;;;;;;;11.18;5.75;;;5.80;99.90;;;;;;5068053;28;20459;-81
2021/12/12 06:46:05;;;;;;;7.07;5.03;;;5.80;99.90;;;;;;5068649;28;20411;-81
2021/12/12 06:48:32;;;;;;;6.10;4.90;;;5.80;99.90;;;;;;5067253;28;20117;-82
2021/12/12 06:50:59;;;;;;;7.22;4.90;;;5.90;99.90;;;;;;5068854;28;20063;-81
2021/12/12 06:53:27;;;;;;;6.93;5.47;;;5.90;99.90;;;;;;5065623;28;20048;-81
2021/12/12 06:55:54;;;;;;;6.68;5.20;;;5.90;99.90;;;;;;5068322;28;20400;-81
2021/12/12 06:58:22;;;;;;;7.65;5.18;;;5.90;99.90;;;;;;5067707;28;20047;-81
2021/12/12 07:00:53;;;;;;;8.30;5.97;;;6.00;99.90;;;;;;5067631;28;20044;-81
2021/12/12 07:03:20;;;;;;;7.82;5.47;;;6.00;99.90;;;;;;5068464;28;20391;-81
2021/12/12 07:05:46;;;;;;;10.18;6.18;;;6.00;99.90;;;;;;5067628;28;20067;-81
2021/12/12 07:08:14;;;;;;;7.50;5.00;;;6.00;99.90;;;;;;5066611;28;20078;-81
2021/12/12 07:10:40;;;;;;;8.60;5.50;;;7.90;99.90;;;;;;5067148;28;20039;-81
2021/12/12 07:13:07;;;;;;;7.90;5.50;;;6.00;99.90;;;;;;5067709;28;20043;-81
2021/12/12 07:15:43;;;;;;;8.90;6.32;;;6.10;99.90;;;;;;5067703;28;20431;-81
2021/12/12 07:18:12;;;;;;;9.20;6.18;;;6.10;99.90;;;;;;5067132;28;20040;-81
2021/12/12 07:20:39;;;;;;;8.98;6.00;;;6.10;99.90;;;;;;5066256;28;20044;-81
2021/12/12 07:23:07;;;;;;;11.70;6.35;;;7.40;99.90;;;;;;5066851;28;20086;-81
2021/12/12 07:25:38;;;;;;;10.07;6.30;;;6.20;99.90;;;;;;5067505;28;20052;-81
2021/12/12 07:28:05;;;;;;;8.48;6.43;;;6.10;99.90;;;;;;5065316;28;20083;-81
2021/12/12 07:30:30;;;;;;;10.60;6.05;;;6.20;99.90;;;;;;5067099;28;20057;-81
2021/12/12 07:32:58;;;;;;;8.30;6.05;;;6.50;99.90;;;;;;5050095;28;20057;-81
2021/12/12 07:35:26;;;;;;;11.20;6.07;;;6.20;99.90;;;;;;5066324;28;20059;-81
2021/12/12 07:37:52;;;;;;;9.68;6.05;;;6.20;99.90;;;;;;5067555;28;20048;-81
2021/12/12 07:40:20;;;;;;;8.93;6.15;;;6.20;99.90;;;;;;5066552;28;20520;-81
2021/12/12 07:42:48;;;;;;;11.07;7.45;;;6.20;99.90;;;;;;5065869;28;20127;-81
2021/12/12 07:45:15;;;;;;;10.80;7.60;;;6.20;99.90;;;;;;5065030;28;20036;-81
2021/12/12 07:47:41;;;;;;;10.18;6.68;;;6.50;99.90;;;;;;5048647;28;20049;-81
2021/12/12 07:50:12;;;;;;;12.38;6.75;;;6.30;99.90;;;;;;5067250;28;20048;-81
2021/12/12 07:52:38;;;;;;;12.43;7.00;;;6.30;99.90;;;;;;5064331;28;20174;-81
2021/12/12 07:55:05;;;;;;;10.35;6.95;;;6.30;99.90;;;;;;5067131;28;20508;-81
2021/12/12 07:57:31;;;;;;;9.70;6.75;;;6.30;99.90;;;;;;5066033;28;20234;-81
2021/12/12 07:59:59;;;;;;;10.70;6.60;;;7.00;99.90;;;;;;5065470;28;20040;-81
2021/12/12 08:02:26;;;;;;;10.88;7.43;;;6.40;99.90;;;;;;5066510;28;20091;-81
2021/12/12 08:04:56;;;;;;;10.30;6.43;;;6.40;99.90;;;;;;5066643;28;20395;-81
2021/12/12 08:07:24;;;;;;;10.05;6.65;;;6.40;99.90;;;;;;5065291;28;20535;-81
2021/12/12 08:09:51;;;;;;;12.48;6.32;;;6.50;99.90;;;;;;5065908;28;20971;-82
2021/12/12 08:12:23;;;;;;;16.23;7.68;;;6.50;99.90;;;;;;5066561;28;20136;-82
2021/12/12 08:14:49;;;;;;;10.98;7.80;;;6.50;99.90;;;;;;5062569;28;20502;-81
2021/12/12 08:17:17;;;;;;;10.55;6.68;;;6.50;99.90;;;;;;5013756;28;20493;-82
2021/12/12 08:19:43;;;;;;;13.75;7.72;;;6.50;99.90;;;;;;5065404;28;20110;-82
2021/12/12 08:22:11;;;;;;;10.65;7.55;;;8.00;99.90;;;;;;5064819;28;20056;-81
2021/12/12 08:24:37;;;;;;;12.30;7.60;;;6.80;99.90;;;;;;5066324;28;20592;-81
2021/12/12 08:27:06;;;;;;;14.93;7.75;;;6.80;99.90;;;;;;5065646;28;20083;-81
2021/12/12 08:29:34;;;;;;;11.60;7.28;;;6.60;99.90;;;;;;5066186;28;20492;-82
2021/12/12 08:32:07;;;;;;;12.35;7.38;;;6.60;99.90;;;;;;5064938;28;20481;-81
2021/12/12 08:34:33;;;;;;;;;;;6.60;99.90;;;;;;5066745;28;20087;-82
2021/12/12 08:37:00;;;;;;;14.32;7.93;;;6.70;99.90;;;;;;5065901;28;20034;-82
2021/12/12 08:39:27;;;;;;;12.75;8.30;;;6.70;99.90;;;;;;5039492;28;20049;-82
2021/12/12 08:41:55;;;;;;;16.40;7.97;;;6.70;99.90;;;;;;5045005;28;20511;-82
2021/12/12 08:44:23;;;;;;;14.90;9.10;;;6.70;99.90;;;;;;5043261;28;20037;-83
2021/12/12 08:46:51;;;;;;;14.68;9.20;;;5.40;99.90;;;;;;5061345;28;20051;-82
2021/12/12 08:49:18;;;;;;;18.33;9.30;;;6.70;99.90;;;;;;5048101;28;20045;-83
2021/12/12 08:51:50;;;;;;;16.35;9.20;;;8.00;99.90;;;;;;5044381;28;20115;-82
2021/12/12 08:54:25;;;;;;;14.18;8.90;;;6.80;99.90;;;;;;5044785;28;20076;-83
2021/12/12 08:57:02;;;;;;;15.80;9.60;;;6.80;99.90;;;;;;5043647;28;20098;-83
2021/12/12 08:59:28;;;;;;;16.27;9.93;;;6.80;99.90;;;;;;5046095;28;20129;-83
2021/12/12 09:02:02;;;;;;;14.80;9.30;;;6.90;99.90;;;;;;5043344;28;20489;-83
2021/12/12 09:04:32;;;;;;;17.67;9.82;;;6.90;99.90;;;;;;5052454;28;20064;-81
2021/12/12 09:07:16;;;;;;;18.13;8.80;;;6.90;99.90;;;;;;5065526;28;20512;-82
2021/12/12 09:10:25;;;;;;;17.45;10.15;;;6.90;99.90;;;;;;5046415;28;20048;-81
2021/12/12 09:13:12;;;;;;;15.90;9.00;;;6.90;99.90;;;;;;5071458;28;20389;-83
2021/12/12 09:15:50;;;;;;;16.52;9.95;;;7.60;99.90;;;;;;5046243;28;20138;-84
2021/12/12 09:18:41;;;;;;;17.58;9.93;;;7.00;99.90;;;;;;5064442;28;20436;-83
2021/12/12 09:21:13;;;;;;;18.17;9.75;;;7.00;99.90;;;;;;5065152;28;20052;-82
2021/12/12 09:23:49;;;;;;;21.30;10.83;;;7.00;99.90;;;;;;5065385;28;20131;-81
2021/12/12 09:26:21;;;;;;;23.98;10.95;;;8.20;99.90;;;;;;5063634;28;20298;-81
2021/12/12 09:28:56;;;;;;;16.35;10.10;;;7.10;99.90;;;;;;5065620;28;20419;-81
2021/12/12 09:31:48;;;;;;;21.63;11.27;;;7.10;99.90;;;;;;5063207;28;20044;-81
2021/12/12 09:34:32;;;;;;;21.23;11.30;;;7.10;99.90;;;;;;5047374;28;20055;-90
2021/12/12 09:37:08;;;;;;;22.55;11.32;;;8.90;99.90;;;;;;5063881;28;20052;-82
2021/12/12 09:39:49;;;;;;;25.58;12.63;;;7.20;99.90;;;;;;5062824;28;20052;-81
2021/12/12 09:42:42;;;;;;;31.70;13.85;;;7.40;99.90;;;;;;5065512;28;20064;-81
2021/12/12 09:45:35;;;;;;;27.05;11.98;;;7.30;99.90;;;;;;5046653;28;20049;-82
2021/12/12 09:51:15;;;;;;;25.42;12.75;;;7.40;99.90;;;;;;5060968;28;20558;-82
2021/12/12 09:53:58;;;;;;;25.45;12.35;;;7.40;99.90;;;;;;5059453;28;20512;-81
2021/12/12 09:56:51;;;;;;;21.50;10.13;;;7.40;99.90;;;;;;5059110;28;20056;-82
2021/12/12 09:59:39;;;;;;;;;;;7.40;99.90;;;;;;5064280;28;20579;-83
2021/12/12 10:02:11;;;;;;;31.40;12.40;;;7.50;99.90;;;;;;5064605;28;19921;-83
2021/12/12 10:05:05;;;;;;;21.55;10.05;;;8.50;99.90;;;;;;5064781;28;20106;-83
2021/12/12 10:07:55;;;;;;;29.98;14.23;;;7.60;99.90;;;;;;5063458;28;20097;-83
2021/12/12 10:10:31;;;;;;;35.90;14.73;;;7.70;99.90;;;;;;5062463;28;20060;-82
2021/12/12 10:13:20;;;;;;;33.72;14.88;;;7.60;99.90;;;;;;5062950;28;20124;-85
2021/12/12 10:15:52;;;;;;;33.70;15.05;;;7.70;99.90;;;;;;5064501;28;20048;-84
2021/12/12 10:18:51;;;;;;;31.23;15.18;;;7.70;99.90;;;;;;5067621;28;20507;-83
2021/12/12 10:21:38;;;;;;;32.83;13.82;;;7.80;99.90;;;;;;5067126;28;20126;-83
2021/12/12 10:24:31;;;;;;;41.33;16.88;;;7.80;99.90;;;;;;5066997;28;20045;-83
2021/12/12 10:27:02;;;;;;;36.97;15.50;;;7.90;99.90;;;;;;5049158;28;20071;-83
2021/12/12 10:29:46;;;;;;;40.85;16.05;;;7.90;99.90;;;;;;5067932;28;20049;-83
2021/12/12 10:32:20;;;;;;;39.58;15.32;;;7.90;99.90;;;;;;5067917;28;20060;-84
2021/12/12 10:34:59;;;;;;;38.55;16.85;;;8.00;99.90;;;;;;5048666;28;20044;-84
2021/12/12 10:37:33;;;;;;;34.03;15.02;;;8.00;99.90;;;;;;5049391;28;20098;-84
2021/12/12 10:40:18;;;;;;;33.90;14.23;;;8.10;99.90;;;;;;5066001;28;20124;-85
2021/12/12 10:42:52;;;;;;;28.70;14.23;;;8.10;99.90;;;;;;5048525;28;20051;-84
2021/12/12 10:45:24;;;;;;;36.88;14.68;;;8.10;99.90;;;;;;5066327;28;20131;-84
2021/12/12 10:48:14;;;;;;;35.03;14.97;;;6.90;99.90;;;;;;5062770;28;20052;-83
2021/12/12 10:51:02;;;;;;;33.08;13.68;;;8.20;99.90;;;;;;5050180;28;20294;-84
2021/12/12 10:53:34;;;;;;;34.20;14.77;;;8.20;99.90;;;;;;5064909;28;20072;-83
2021/12/12 10:56:37;;;;;;;28.50;13.30;;;8.10;99.90;;;;;;5045323;28;20055;-83
2021/12/12 10:59:25;;;;;;;28.70;14.02;;;8.30;99.90;;;;;;5068278;28;20098;-84
2021/12/12 11:01:55;;;;;;;27.17;13.90;;;8.30;99.90;;;;;;5061583;28;20060;-84
2021/12/12 11:04:36;;;;;;;24.83;12.23;;;8.80;99.90;;;;;;5066289;28;20072;-83
2021/12/12 11:07:10;;;;;;;32.63;13.50;;;8.40;99.90;;;;;;5066817;28;20080;-84
2021/12/12 11:09:38;;;;;;;28.55;13.32;;;8.40;99.90;;;;;;5067739;28;20150;-85
2021/12/12 11:12:10;;;;;;;28.15;12.75;;;10.20;99.90;;;;;;5069068;28;20049;-83
2021/12/12 11:14:48;;;;;;;27.00;12.27;;;8.50;99.90;;;;;;5064627;28;20087;-84
2021/12/12 11:17:24;;;;;;;30.58;13.07;;;8.50;99.90;;;;;;5064907;28;20465;-84
2021/12/12 11:20:14;;;;;;;30.70;13.02;;;10.40;99.90;;;;;;5066508;28;20044;-85
2021/12/12 11:22:55;;;;;;;28.00;13.23;;;8.50;99.90;;;;;;5044474;28;20063;-86
2021/12/12 11:25:21;;;;;;;25.58;11.93;;;8.60;99.90;;;;;;5064310;28;20488;-85
2021/12/12 11:27:54;;;;;;;21.42;10.77;;;8.60;99.90;;;;;;5065862;28;20178;-84
2021/12/12 11:30:38;;;;;;;24.35;10.43;;;8.70;99.90;;;;;;5065601;28;20088;-85
2021/12/12 11:33:09;;;;;;;25.45;11.57;;;8.70;99.90;;;;;;5066164;28;20562;-85
2021/12/12 11:35:36;;;;;;;20.50;9.45;;;8.80;99.90;;;;;;5048668;28;20044;-86
2021/12/12 11:38:16;;;;;;;18.85;9.15;;;8.90;99.90;;;;;;5067687;28;20048;-84
2021/12/12 11:40:49;;;;;;;25.73;11.27;;;8.90;99.90;;;;;;5066754;28;20048;-83
2021/12/12 11:43:34;;;;;;;17.30;9.18;;;9.00;99.90;;;;;;5065854;28;20071;-84
2021/12/12 11:46:19;;;;;;;22.40;9.95;;;8.90;99.90;;;;;;5067715;28;20040;-83
2021/12/12 11:49:02;;;;;;;20.00;8.93;;;9.00;99.90;;;;;;5066234;28;20051;-89
2021/12/12 11:51:32;;;;;;;11.87;6.87;;;9.00;99.90;;;;;;5065465;28;20052;-88
2021/12/12 11:54:16;;;;;;;26.50;9.68;;;9.20;99.90;;;;;;5066947;28;20400;-89
2021/12/12 11:57:00;;;;;;;17.25;8.60;;;9.10;99.90;;;;;;5065854;28;20063;-88
2021/12/12 11:59:49;;;;;;;22.02;9.52;;;9.20;99.90;;;;;;5065289;28;20491;-85
2021/12/12 12:02:30;;;;;;;18.38;9.20;;;9.20;99.90;;;;;;5064651;28;20084;-87
2021/12/12 12:05:04;;;;;;;19.63;9.60;;;9.20;99.90;;;;;;5047098;28;20471;-87
2021/12/12 12:07:50;;;;;;;18.52;9.48;;;9.00;99.90;;;;;;5064022;28;20048;-86
2021/12/12 12:10:44;;;;;;;18.90;9.23;;;9.30;99.90;;;;;;5063803;28;20037;-87
2021/12/12 12:13:24;;;;;;;15.38;8.35;;;9.30;99.90;;;;;;5066115;28;20131;-86
2021/12/12 12:15:58;;;;;;;16.25;9.35;;;9.30;99.90;;;;;;5066627;28;20494;-88
2021/12/12 12:18:38;;;;;;;18.83;9.25;;;9.30;99.90;;;;;;5047650;28;20066;-87
2021/12/12 12:21:29;;;;;;;14.70;8.80;;;10.60;99.90;;;;;;5048893;28;20890;-84
2021/12/12 12:26:50;;;;;;;17.42;8.23;;;9.40;99.90;;;;;;5064151;28;20094;-86
2021/12/12 12:29:48;;;;;;;15.57;8.40;;;11.10;99.90;;;;;;5065267;28;20091;-84
2021/12/12 12:32:52;;;;;;;15.57;8.27;;;9.40;99.90;;;;;;5063550;28;20052;-85
2021/12/12 12:35:39;;;;;;;16.60;7.95;;;9.30;99.90;;;;;;5065250;28;20117;-85
2021/12/12 12:38:23;;;;;;;17.05;8.40;;;9.30;99.90;;;;;;5065340;28;20052;-86
2021/12/12 12:41:26;;;;;;;14.60;8.23;;;9.20;99.90;;;;;;5063890;28;20048;-86
2021/12/12 12:44:20;;;;;;;11.18;5.53;;;9.30;99.90;;;;;;5061905;28;20095;-87
2021/12/12 12:47:04;;;;;;;;;;;9.40;99.90;;;;;;5064891;28;20052;-86
2021/12/12 12:49:52;;;;;;;13.15;6.93;;;9.40;99.90;;;;;;5062503;28;19963;-86
2021/12/12 12:52:55;;;;;;;14.68;8.00;;;9.40;99.90;;;;;;5063226;28;20515;-85
2021/12/12 12:55:49;;;;;;;12.93;6.50;;;9.40;99.90;;;;;;5064293;28;20465;-85
2021/12/12 12:58:24;;;;;;;15.35;7.63;;;9.40;99.90;;;;;;5064291;28;20048;-84
2021/12/12 13:00:55;;;;;;;12.90;7.15;;;9.40;99.90;;;;;;5061557;28;20454;-89
2021/12/12 13:03:57;;;;;;;13.35;6.85;;;9.40;99.90;;;;;;5046747;28;20120;-83
2021/12/12 13:07:01;;;;;;;14.35;7.15;;;9.40;99.90;;;;;;5059371;28;20180;-83
2021/12/12 13:09:46;;;;;;;12.30;6.45;;;9.50;99.90;;;;;;5059453;28;20487;-83
2021/12/12 13:12:11;;;;;;;11.43;6.85;;;9.50;99.90;;;;;;5069523;28;20056;-85
2021/12/12 13:14:59;;;;;;;12.00;7.40;;;9.50;99.90;;;;;;5059618;28;20049;-84
2021/12/12 13:17:51;;;;;;;15.18;7.30;;;9.50;99.90;;;;;;5061211;28;20036;-84
2021/12/12 13:21:14;;;;;;;12.32;6.70;;;9.50;99.90;;;;;;5045658;28;20051;-83
2021/12/12 13:24:15;;;;;;;10.95;6.28;;;9.50;99.90;;;;;;5027553;28;20108;-81
2021/12/12 13:27:00;;;;;;;15.90;6.88;;;9.60;99.90;;;;;;5062139;28;20080;-84
2021/12/12 13:29:43;;;;;;;12.40;7.80;;;9.60;99.90;;;;;;5065233;28;20102;-83
2021/12/12 13:32:25;;;;;;;12.23;6.30;;;9.60;99.90;;;;;;5065297;28;20044;-84
2021/12/12 13:35:01;;;;;;;13.00;6.82;;;9.60;99.90;;;;;;5047979;28;20041;-84
2021/12/12 13:37:47;;;;;;;11.00;6.93;;;11.30;99.90;;;;;;5064208;28;20045;-85
2021/12/12 13:40:32;;;;;;;10.27;6.22;;;9.70;99.90;;;;;;5062486;28;20147;-84
2021/12/12 13:43:25;;;;;;;9.82;6.43;;;9.70;99.90;;;;;;5065123;28;20189;-85